sensor_id;sensor_type;location;lat;lon;timestamp;pressure;altitude;pressure_sealevel;temperature;humidity
57900;BME280;60605;53.716;19.940;2024-02-21T00:03:40;100615.64;;;4.98;100.00
57900;BME280;60605;53.716;19.940;2024-02-21T01:26:46;100578.81;;;5.17;100.00
57900;BME280;60605;53.716;19.940;2024-02-21T01:31:49;100577.41;;;5.12;100.00
57900;BME280;60605;53.716;19.940;2024-02-21T01:36:53;100574.98;;;5.09;100.00
57900;BME280;60605;53.716;19.940;2024-02-21T01:41:57;100575.48;;;5.07;100.00
57900;BME280;60605;53.716;19.940;2024-02-21T01:47:01;100565.45;;;5.04;100.00
57900;BME280;60605;53.716;19.940;2024-02-21T01:52:04;100556.16;;;5.00;100.00
57900;BME280;60605;53.716;19.940;2024-02-21T01:57:08;100562.03;;;4.97;100.00
57900;BME280;60605;53.716;19.940;2024-02-21T02:02:12;100570.69;;;4.95;100.00
57900;BME280;60605;53.716;19.940;2024-02-21T02:07:15;100568.29;;;4.94;100.00
57900;BME280;60605;53.716;19.940;2024-02-21T02:12:19;100564.37;;;4.94;100.00
57900;BME280;60605;53.716;19.940;2024-02-21T02:17:22;100560.86;;;4.94;100.00
57900;BME280;60605;53.716;19.940;2024-02-21T02:22:28;100548.34;;;4.93;100.00
57900;BME280;60605;53.716;19.940;2024-02-21T02:27:32;100548.98;;;4.92;100.00
57900;BME280;60605;53.716;19.940;2024-02-21T02:32:36;100539.45;;;4.89;100.00
57900;BME280;60605;53.716;19.940;2024-02-21T02:37:39;100537.83;;;4.87;100.00
57900;BME280;60605;53.716;19.940;2024-02-21T02:42:43;100533.16;;;4.86;100.00
57900;BME280;60605;53.716;19.940;2024-02-21T02:47:46;100527.13;;;4.86;100.00
57900;BME280;60605;53.716;19.940;2024-02-21T02:52:50;100527.57;;;4.87;100.00
57900;BME280;60605;53.716;19.940;2024-02-21T02:57:54;100520.66;;;4.89;100.00
57900;BME280;60605;53.716;19.940;2024-02-21T03:02:57;100518.87;;;4.92;100.00
57900;BME280;60605;53.716;19.940;2024-02-21T03:08:01;100507.88;;;4.95;100.00
57900;BME280;60605;53.716;19.940;2024-02-21T03:13:04;100506.44;;;4.97;100.00
57900;BME280;60605;53.716;19.940;2024-02-21T03:18:07;100508.05;;;5.00;100.00
57900;BME280;60605;53.716;19.940;2024-02-21T03:23:11;100504.22;;;5.01;100.00
57900;BME280;60605;53.716;19.940;2024-02-21T03:28:15;100497.26;;;5.02;100.00
57900;BME280;60605;53.716;19.940;2024-02-21T03:33:19;100493.49;;;5.03;100.00
57900;BME280;60605;53.716;19.940;2024-02-21T03:38:24;100492.54;;;5.04;100.00
57900;BME280;60605;53.716;19.940;2024-02-21T03:43:28;100489.18;;;5.04;100.00
57900;BME280;60605;53.716;19.940;2024-02-21T03:48:31;100487.39;;;5.04;100.00
57900;BME280;60605;53.716;19.940;2024-02-21T03:53:34;100483.73;;;5.05;100.00
57900;BME280;60605;53.716;19.940;2024-02-21T03:58:38;100482.21;;;5.07;100.00
57900;BME280;60605;53.716;19.940;2024-02-21T04:03:44;100481.16;;;5.09;100.00
57900;BME280;60605;53.716;19.940;2024-02-21T04:08:48;100475.23;;;5.10;100.00
57900;BME280;60605;53.716;19.940;2024-02-21T04:13:51;100464.69;;;5.11;100.00
57900;BME280;60605;53.716;19.940;2024-02-21T04:18:55;100460.17;;;5.13;100.00
57900;BME280;60605;53.716;19.940;2024-02-21T04:23:58;100458.11;;;5.14;100.00
57900;BME280;60605;53.716;19.940;2024-02-21T04:29:02;100449.69;;;5.16;100.00
57900;BME280;60605;53.716;19.940;2024-02-21T04:34:06;100444.06;;;5.17;100.00
57900;BME280;60605;53.716;19.940;2024-02-21T04:39:10;100441.11;;;5.19;100.00
57900;BME280;60605;53.716;19.940;2024-02-21T04:44:14;100441.09;;;5.22;100.00
57900;BME280;60605;53.716;19.940;2024-02-21T04:49:19;100439.10;;;5.24;100.00
57900;BME280;60605;53.716;19.940;2024-02-21T04:54:22;100436.58;;;5.27;100.00
57900;BME280;60605;53.716;19.940;2024-02-21T04:59:26;100430.69;;;5.30;100.00
57900;BME280;60605;53.716;19.940;2024-02-21T05:04:29;100426.27;;;5.32;100.00
57900;BME280;60605;53.716;19.940;2024-02-21T05:09:33;100416.90;;;5.35;100.00
57900;BME280;60605;53.716;19.940;2024-02-21T05:14:36;100413.42;;;5.36;100.00
57900;BME280;60605;53.716;19.940;2024-02-21T05:19:40;100409.63;;;5.37;100.00
57900;BME280;60605;53.716;19.940;2024-02-21T05:24:44;100407.38;;;5.38;100.00
57900;BME280;60605;53.716;19.940;2024-02-21T05:29:47;100407.30;;;5.40;100.00
57900;BME280;60605;53.716;19.940;2024-02-21T05:34:51;100409.64;;;5.41;100.00
57900;BME280;60605;53.716;19.940;2024-02-21T05:39:55;100407.90;;;5.43;100.00
57900;BME280;60605;53.716;19.940;2024-02-21T05:44:58;100403.52;;;5.45;100.00
57900;BME280;60605;53.716;19.940;2024-02-21T05:50:02;100402.48;;;5.47;100.00
57900;BME280;60605;53.716;19.940;2024-02-21T05:55:06;100401.97;;;5.49;100.00
57900;BME280;60605;53.716;19.940;2024-02-21T06:00:10;100399.46;;;5.52;100.00
57900;BME280;60605;53.716;19.940;2024-02-21T06:05:14;100398.28;;;5.54;100.00
57900;BME280;60605;53.716;19.940;2024-02-21T06:10:17;100395.84;;;5.55;100.00
57900;BME280;60605;53.716;19.940;2024-02-21T06:15:21;100393.96;;;5.57;100.00
57900;BME280;60605;53.716;19.940;2024-02-21T06:20:24;100391.52;;;5.59;100.00
57900;BME280;60605;53.716;19.940;2024-02-21T06:25:28;100380.56;;;5.61;100.00
57900;BME280;60605;53.716;19.940;2024-02-21T06:30:31;100376.48;;;5.63;100.00
57900;BME280;60605;53.716;19.940;2024-02-21T06:35:35;100369.89;;;5.65;100.00
57900;BME280;60605;53.716;19.940;2024-02-21T06:40:38;100372.32;;;5.68;100.00
57900;BME280;60605;53.716;19.940;2024-02-21T06:45:43;100374.02;;;5.71;100.00
57900;BME280;60605;53.716;19.940;2024-02-21T06:50:50;100370.81;;;5.74;100.00
57900;BME280;60605;53.716;19.940;2024-02-21T06:55:54;100367.06;;;5.76;100.00
57900;BME280;60605;53.716;19.940;2024-02-21T07:00:57;100366.82;;;5.79;100.00
57900;BME280;60605;53.716;19.940;2024-02-21T07:06:02;100363.68;;;5.83;100.00
57900;BME280;60605;53.716;19.940;2024-02-21T07:11:06;100361.41;;;5.90;100.00
57900;BME280;60605;53.716;19.940;2024-02-21T07:16:09;100361.16;;;5.99;100.00
57900;BME280;60605;53.716;19.940;2024-02-21T07:21:12;100353.37;;;6.10;100.00
57900;BME280;60605;53.716;19.940;2024-02-21T07:26:16;100343.79;;;6.19;100.00
57900;BME280;60605;53.716;19.940;2024-02-21T07:31:19;100337.77;;;6.30;100.00
57900;BME280;60605;53.716;19.940;2024-02-21T07:36:29;100336.02;;;6.49;100.00
57900;BME280;60605;53.716;19.940;2024-02-21T07:41:35;100329.89;;;6.75;100.00
57900;BME280;60605;53.716;19.940;2024-02-21T07:46:38;100329.98;;;6.89;100.00
57900;BME280;60605;53.716;19.940;2024-02-21T07:51:42;100329.60;;;6.87;100.00
57900;BME280;60605;53.716;19.940;2024-02-21T07:56:45;100323.64;;;6.84;100.00
57900;BME280;60605;53.716;19.940;2024-02-21T08:01:49;100312.23;;;6.85;100.00
57900;BME280;60605;53.716;19.940;2024-02-21T08:06:53;100311.80;;;6.86;100.00
57900;BME280;60605;53.716;19.940;2024-02-21T08:11:57;100304.90;;;6.92;100.00
57900;BME280;60605;53.716;19.940;2024-02-21T08:17:00;100295.88;;;6.99;100.00
57900;BME280;60605;53.716;19.940;2024-02-21T08:22:04;100282.02;;;7.12;100.00
57900;BME280;60605;53.716;19.940;2024-02-21T08:27:07;100275.59;;;7.21;100.00
57900;BME280;60605;53.716;19.940;2024-02-21T08:32:11;100272.20;;;7.21;100.00
57900;BME280;60605;53.716;19.940;2024-02-21T08:37:14;100271.04;;;7.24;100.00
57900;BME280;60605;53.716;19.940;2024-02-21T08:42:20;100265.02;;;7.32;100.00
57900;BME280;60605;53.716;19.940;2024-02-21T08:47:23;100257.73;;;7.40;100.00
57900;BME280;60605;53.716;19.940;2024-02-21T08:52:27;100247.23;;;7.44;100.00
57900;BME280;60605;53.716;19.940;2024-02-21T08:57:30;100237.48;;;7.46;100.00
57900;BME280;60605;53.716;19.940;2024-02-21T09:02:40;100229.35;;;7.50;100.00
57900;BME280;60605;53.716;19.940;2024-02-21T09:07:46;100224.80;;;7.53;100.00
57900;BME280;60605;53.716;19.940;2024-02-21T09:12:50;100231.53;;;7.61;100.00
57900;BME280;60605;53.716;19.940;2024-02-21T09:17:54;100232.77;;;7.63;100.00
57900;BME280;60605;53.716;19.940;2024-02-21T09:22:57;100235.98;;;7.61;100.00
57900;BME280;60605;53.716;19.940;2024-02-21T09:28:02;100238.48;;;7.57;100.00
57900;BME280;60605;53.716;19.940;2024-02-21T09:33:06;100238.95;;;7.52;100.00
57900;BME280;60605;53.716;19.940;2024-02-21T09:38:09;100236.17;;;7.47;100.00
57900;BME280;60605;53.716;19.940;2024-02-21T09:43:17;100237.76;;;7.43;100.00
57900;BME280;60605;53.716;19.940;2024-02-21T09:48:42;100236.72;;;7.37;100.00
57900;BME280;60605;53.716;19.940;2024-02-21T09:53:53;100235.90;;;7.32;100.00
57900;BME280;60605;53.716;19.940;2024-02-21T09:59:15;100235.98;;;7.29;100.00
57900;BME280;60605;53.716;19.940;2024-02-21T10:04:20;100232.39;;;7.30;100.00
57900;BME280;60605;53.716;19.940;2024-02-21T10:09:26;100230.98;;;7.29;100.00
57900;BME280;60605;53.716;19.940;2024-02-21T10:14:31;100222.64;;;7.27;100.00
57900;BME280;60605;53.716;19.940;2024-02-21T10:19:35;100213.99;;;7.25;100.00
57900;BME280;60605;53.716;19.940;2024-02-21T10:24:39;100203.41;;;7.24;100.00
57900;BME280;60605;53.716;19.940;2024-02-21T10:29:49;100194.27;;;7.25;100.00
57900;BME280;60605;53.716;19.940;2024-02-21T10:35:04;100190.41;;;7.24;100.00
57900;BME280;60605;53.716;19.940;2024-02-21T10:40:08;100190.35;;;7.23;100.00
57900;BME280;60605;53.716;19.940;2024-02-21T10:45:12;100184.59;;;7.22;100.00
57900;BME280;60605;53.716;19.940;2024-02-21T10:50:19;100174.60;;;7.20;100.00
57900;BME280;60605;53.716;19.940;2024-02-21T10:55:32;100165.00;;;7.20;100.00
57900;BME280;60605;53.716;19.940;2024-02-21T11:00:39;100162.80;;;7.23;100.00
57900;BME280;60605;53.716;19.940;2024-02-21T11:05:43;100159.83;;;7.23;100.00
57900;BME280;60605;53.716;19.940;2024-02-21T11:10:48;100148.91;;;7.21;100.00
57900;BME280;60605;53.716;19.940;2024-02-21T11:15:52;100130.98;;;7.19;100.00
57900;BME280;60605;53.716;19.940;2024-02-21T11:20:58;100117.42;;;7.18;100.00
57900;BME280;60605;53.716;19.940;2024-02-21T11:26:09;100117.33;;;7.17;100.00
57900;BME280;60605;53.716;19.940;2024-02-21T11:31:14;100104.44;;;7.14;100.00
57900;BME280;60605;53.716;19.940;2024-02-21T11:36:27;100099.73;;;7.15;100.00
57900;BME280;60605;53.716;19.940;2024-02-21T11:41:31;100093.52;;;7.19;100.00
57900;BME280;60605;53.716;19.940;2024-02-21T11:46:35;100083.88;;;7.24;100.00
57900;BME280;60605;53.716;19.940;2024-02-21T11:51:39;100064.31;;;7.28;100.00
57900;BME280;60605;53.716;19.940;2024-02-21T11:56:42;100055.52;;;7.35;100.00
57900;BME280;60605;53.716;19.940;2024-02-21T12:01:47;100059.98;;;7.36;100.00
57900;BME280;60605;53.716;19.940;2024-02-21T12:06:53;100055.58;;;7.36;100.00
57900;BME280;60605;53.716;19.940;2024-02-21T12:11:59;100045.64;;;7.40;100.00
57900;BME280;60605;53.716;19.940;2024-02-21T12:17:03;100046.41;;;7.45;100.00
57900;BME280;60605;53.716;19.940;2024-02-21T12:22:07;100048.84;;;7.47;100.00
57900;BME280;60605;53.716;19.940;2024-02-21T12:27:11;100043.20;;;7.47;100.00
57900;BME280;60605;53.716;19.940;2024-02-21T12:32:15;100046.19;;;7.43;100.00
57900;BME280;60605;53.716;19.940;2024-02-21T12:37:19;100037.45;;;7.40;100.00
57900;BME280;60605;53.716;19.940;2024-02-21T12:42:25;100031.67;;;7.39;100.00
57900;BME280;60605;53.716;19.940;2024-02-21T12:47:30;100026.65;;;7.37;100.00
57900;BME280;60605;53.716;19.940;2024-02-21T12:52:34;100017.56;;;7.36;100.00
57900;BME280;60605;53.716;19.940;2024-02-21T12:57:38;100014.59;;;7.35;100.00
57900;BME280;60605;53.716;19.940;2024-02-21T13:02:41;100008.41;;;7.35;100.00
57900;BME280;60605;53.716;19.940;2024-02-21T13:07:46;100008.53;;;7.36;100.00
57900;BME280;60605;53.716;19.940;2024-02-21T13:12:49;100005.53;;;7.37;100.00
57900;BME280;60605;53.716;19.940;2024-02-21T13:17:54;100002.67;;;7.37;100.00
57900;BME280;60605;53.716;19.940;2024-02-21T13:22:57;99995.98;;;7.39;100.00
57900;BME280;60605;53.716;19.940;2024-02-21T13:28:01;99986.60;;;7.42;100.00
57900;BME280;60605;53.716;19.940;2024-02-21T13:33:07;99983.60;;;7.46;100.00
57900;BME280;60605;53.716;19.940;2024-02-21T13:38:10;99976.95;;;7.46;100.00
57900;BME280;60605;53.716;19.940;2024-02-21T13:43:14;99973.05;;;7.46;100.00
57900;BME280;60605;53.716;19.940;2024-02-21T13:48:18;99964.16;;;7.45;100.00
57900;BME280;60605;53.716;19.940;2024-02-21T13:53:22;99958.35;;;7.44;100.00
57900;BME280;60605;53.716;19.940;2024-02-21T13:58:26;99947.30;;;7.42;100.00
57900;BME280;60605;53.716;19.940;2024-02-21T14:03:30;99935.98;;;7.42;100.00
57900;BME280;60605;53.716;19.940;2024-02-21T14:08:33;99929.88;;;7.41;100.00
57900;BME280;60605;53.716;19.940;2024-02-21T14:13:37;99923.45;;;7.39;100.00
57900;BME280;60605;53.716;19.940;2024-02-21T14:18:41;99913.13;;;7.39;100.00
57900;BME280;60605;53.716;19.940;2024-02-21T14:23:46;99913.49;;;7.41;100.00
57900;BME280;60605;53.716;19.940;2024-02-21T14:28:50;99915.11;;;7.43;100.00
57900;BME280;60605;53.716;19.940;2024-02-21T14:33:54;99911.50;;;7.43;100.00
57900;BME280;60605;53.716;19.940;2024-02-21T14:38:57;99911.20;;;7.43;100.00
57900;BME280;60605;53.716;19.940;2024-02-21T14:44:02;99907.68;;;7.42;100.00
57900;BME280;60605;53.716;19.940;2024-02-21T14:49:07;99902.60;;;7.45;100.00
57900;BME280;60605;53.716;19.940;2024-02-21T14:54:11;99900.46;;;7.48;100.00
57900;BME280;60605;53.716;19.940;2024-02-21T14:59:15;99903.83;;;7.48;100.00
57900;BME280;60605;53.716;19.940;2024-02-21T15:04:35;99901.54;;;7.47;100.00
57900;BME280;60605;53.716;19.940;2024-02-21T15:09:38;99896.26;;;7.47;100.00
57900;BME280;60605;53.716;19.940;2024-02-21T15:14:42;99895.45;;;7.46;100.00
57900;BME280;60605;53.716;19.940;2024-02-21T15:19:46;99887.34;;;7.45;100.00
57900;BME280;60605;53.716;19.940;2024-02-21T15:24:51;99876.25;;;7.44;100.00
57900;BME280;60605;53.716;19.940;2024-02-21T15:29:55;99874.73;;;7.43;100.00
57900;BME280;60605;53.716;19.940;2024-02-21T15:35:00;99875.22;;;7.44;100.00
57900;BME280;60605;53.716;19.940;2024-02-21T15:40:05;99880.83;;;7.45;100.00
57900;BME280;60605;53.716;19.940;2024-02-21T15:45:12;99871.55;;;7.43;100.00
57900;BME280;60605;53.716;19.940;2024-02-21T15:50:17;99862.55;;;7.39;100.00
57900;BME280;60605;53.716;19.940;2024-02-21T15:55:21;99841.83;;;7.32;100.00
57900;BME280;60605;53.716;19.940;2024-02-21T16:00:27;99839.17;;;7.29;100.00
57900;BME280;60605;53.716;19.940;2024-02-21T16:05:31;99842.27;;;7.26;100.00
57900;BME280;60605;53.716;19.940;2024-02-21T16:10:35;99850.62;;;7.24;100.00
57900;BME280;60605;53.716;19.940;2024-02-21T16:15:40;99854.91;;;7.24;100.00
57900;BME280;60605;53.716;19.940;2024-02-21T16:20:46;99851.17;;;7.24;100.00
57900;BME280;60605;53.716;19.940;2024-02-21T16:25:53;99856.96;;;7.20;100.00
57900;BME280;60605;53.716;19.940;2024-02-21T16:30:57;99859.86;;;7.16;100.00
57900;BME280;60605;53.716;19.940;2024-02-21T16:36:01;99859.72;;;7.16;100.00
57900;BME280;60605;53.716;19.940;2024-02-21T16:41:05;99849.00;;;7.16;100.00
57900;BME280;60605;53.716;19.940;2024-02-21T16:46:09;99847.17;;;7.15;100.00
57900;BME280;60605;53.716;19.940;2024-02-21T16:51:12;99850.30;;;7.14;100.00
57900;BME280;60605;53.716;19.940;2024-02-21T16:56:16;99855.79;;;7.14;100.00
57900;BME280;60605;53.716;19.940;2024-02-21T17:01:22;99850.48;;;7.15;100.00
57900;BME280;60605;53.716;19.940;2024-02-21T17:06:26;99838.07;;;7.18;100.00
57900;BME280;60605;53.716;19.940;2024-02-21T17:11:29;99832.88;;;7.18;100.00
57900;BME280;60605;53.716;19.940;2024-02-21T17:16:33;99833.14;;;7.17;100.00
57900;BME280;60605;53.716;19.940;2024-02-21T17:21:38;99836.21;;;7.16;100.00
57900;BME280;60605;53.716;19.940;2024-02-21T17:26:41;99840.78;;;7.15;100.00
57900;BME280;60605;53.716;19.940;2024-02-21T17:31:45;99836.00;;;7.13;100.00
57900;BME280;60605;53.716;19.940;2024-02-21T17:36:48;99825.81;;;7.12;100.00
57900;BME280;60605;53.716;19.940;2024-02-21T17:41:52;99812.16;;;7.11;100.00
57900;BME280;60605;53.716;19.940;2024-02-21T17:46:57;99813.47;;;7.11;100.00
57900;BME280;60605;53.716;19.940;2024-02-21T17:52:00;99818.27;;;7.11;100.00
57900;BME280;60605;53.716;19.940;2024-02-21T17:57:04;99821.84;;;7.12;100.00
57900;BME280;60605;53.716;19.940;2024-02-21T18:02:08;99821.73;;;7.16;100.00
57900;BME280;60605;53.716;19.940;2024-02-21T18:07:12;99822.25;;;7.18;100.00
57900;BME280;60605;53.716;19.940;2024-02-21T18:12:16;99819.14;;;7.19;100.00
57900;BME280;60605;53.716;19.940;2024-02-21T18:17:20;99815.64;;;7.20;100.00
57900;BME280;60605;53.716;19.940;2024-02-21T18:22:23;99809.34;;;7.21;100.00
57900;BME280;60605;53.716;19.940;2024-02-21T18:27:28;99804.63;;;7.22;100.00
57900;BME280;60605;53.716;19.940;2024-02-21T18:32:33;99802.64;;;7.22;100.00
57900;BME280;60605;53.716;19.940;2024-02-21T18:37:37;99803.75;;;7.22;100.00
57900;BME280;60605;53.716;19.940;2024-02-21T18:42:41;99801.91;;;7.21;100.00
57900;BME280;60605;53.716;19.940;2024-02-21T18:47:44;99802.02;;;7.19;100.00
57900;BME280;60605;53.716;19.940;2024-02-21T18:52:58;99799.90;;;7.17;100.00
57900;BME280;60605;53.716;19.940;2024-02-21T18:58:03;99800.32;;;7.15;100.00
57900;BME280;60605;53.716;19.940;2024-02-21T19:03:07;99799.91;;;7.14;100.00
57900;BME280;60605;53.716;19.940;2024-02-21T19:08:10;99801.39;;;7.13;100.00
57900;BME280;60605;53.716;19.940;2024-02-21T19:13:14;99792.95;;;7.12;100.00
57900;BME280;60605;53.716;19.940;2024-02-21T19:18:18;99788.02;;;7.08;100.00
57900;BME280;60605;53.716;19.940;2024-02-21T19:23:23;99786.77;;;7.02;100.00
57900;BME280;60605;53.716;19.940;2024-02-21T19:28:27;99782.31;;;7.00;100.00
57900;BME280;60605;53.716;19.940;2024-02-21T19:33:32;99780.67;;;7.01;100.00
57900;BME280;60605;53.716;19.940;2024-02-21T19:38:36;99776.30;;;7.02;100.00
57900;BME280;60605;53.716;19.940;2024-02-21T19:43:40;99769.60;;;7.03;100.00
57900;BME280;60605;53.716;19.940;2024-02-21T19:48:43;99765.20;;;7.03;100.00
57900;BME280;60605;53.716;19.940;2024-02-21T19:53:47;99765.31;;;7.02;100.00
57900;BME280;60605;53.716;19.940;2024-02-21T19:59:07;99760.63;;;7.02;100.00
57900;BME280;60605;53.716;19.940;2024-02-21T20:04:12;99763.32;;;7.04;100.00
57900;BME280;60605;53.716;19.940;2024-02-21T20:09:16;99767.33;;;7.07;100.00
57900;BME280;60605;53.716;19.940;2024-02-21T20:14:20;99765.84;;;7.09;100.00
57900;BME280;60605;53.716;19.940;2024-02-21T20:19:25;99757.67;;;7.11;100.00
57900;BME280;60605;53.716;19.940;2024-02-21T20:24:29;99756.88;;;7.14;100.00
57900;BME280;60605;53.716;19.940;2024-02-21T20:29:42;99754.37;;;7.16;100.00
57900;BME280;60605;53.716;19.940;2024-02-21T20:34:46;99745.41;;;7.19;100.00
57900;BME280;60605;53.716;19.940;2024-02-21T20:39:52;99743.70;;;7.20;100.00
57900;BME280;60605;53.716;19.940;2024-02-21T20:44:57;99738.84;;;7.21;100.00
57900;BME280;60605;53.716;19.940;2024-02-21T20:50:01;99731.69;;;7.21;100.00
57900;BME280;60605;53.716;19.940;2024-02-21T20:55:07;99729.65;;;7.21;100.00
57900;BME280;60605;53.716;19.940;2024-02-21T21:00:13;99733.33;;;7.21;100.00
57900;BME280;60605;53.716;19.940;2024-02-21T21:05:17;99725.16;;;7.21;100.00
57900;BME280;60605;53.716;19.940;2024-02-21T21:10:24;99721.95;;;7.21;100.00
57900;BME280;60605;53.716;19.940;2024-02-21T21:15:28;99716.73;;;7.20;100.00
57900;BME280;60605;53.716;19.940;2024-02-21T21:20:32;99712.60;;;7.18;100.00
57900;BME280;60605;53.716;19.940;2024-02-21T21:25:37;99704.48;;;7.16;100.00
57900;BME280;60605;53.716;19.940;2024-02-21T21:30:42;99701.79;;;7.14;100.00
57900;BME280;60605;53.716;19.940;2024-02-21T21:35:46;99700.77;;;7.14;100.00
57900;BME280;60605;53.716;19.940;2024-02-21T21:40:58;99694.88;;;7.14;100.00
57900;BME280;60605;53.716;19.940;2024-02-21T21:46:04;99686.15;;;7.14;100.00
57900;BME280;60605;53.716;19.940;2024-02-21T21:51:19;99684.77;;;7.16;100.00
57900;BME280;60605;53.716;19.940;2024-02-21T21:56:23;99680.52;;;7.17;100.00
57900;BME280;60605;53.716;19.940;2024-02-21T22:01:27;99677.24;;;7.18;100.00
57900;BME280;60605;53.716;19.940;2024-02-21T22:06:51;99670.98;;;7.19;100.00
57900;BME280;60605;53.716;19.940;2024-02-21T22:12:01;99668.13;;;7.19;100.00
57900;BME280;60605;53.716;19.940;2024-02-21T22:17:04;99670.58;;;7.19;100.00
57900;BME280;60605;53.716;19.940;2024-02-21T22:22:11;99674.89;;;7.19;100.00
57900;BME280;60605;53.716;19.940;2024-02-21T22:27:29;99671.13;;;7.17;100.00
57900;BME280;60605;53.716;19.940;2024-02-21T22:32:41;99666.19;;;7.15;100.00
57900;BME280;60605;53.716;19.940;2024-02-21T22:37:47;99664.47;;;7.15;100.00
57900;BME280;60605;53.716;19.940;2024-02-21T22:42:52;99664.24;;;7.13;100.00
57900;BME280;60605;53.716;19.940;2024-02-21T22:47:59;99669.98;;;7.11;100.00
57900;BME280;60605;53.716;19.940;2024-02-21T22:53:12;99673.20;;;7.09;100.00
57900;BME280;60605;53.716;19.940;2024-02-21T22:58:24;99670.26;;;7.08;100.00
57900;BME280;60605;53.716;19.940;2024-02-21T23:03:31;99666.48;;;7.07;100.00
57900;BME280;60605;53.716;19.940;2024-02-21T23:08:40;99664.46;;;7.05;100.00
57900;BME280;60605;53.716;19.940;2024-02-21T23:13:46;99662.23;;;7.05;100.00
57900;BME280;60605;53.716;19.940;2024-02-21T23:18:51;99662.08;;;7.04;100.00
57900;BME280;60605;53.716;19.940;2024-02-21T23:24:00;99661.24;;;7.04;100.00
57900;BME280;60605;53.716;19.940;2024-02-21T23:29:04;99659.01;;;7.03;100.00
57900;BME280;60605;53.716;19.940;2024-02-21T23:34:11;99654.56;;;7.01;100.00
57900;BME280;60605;53.716;19.940;2024-02-21T23:39:19;99653.59;;;6.99;100.00
57900;BME280;60605;53.716;19.940;2024-02-21T23:44:26;99647.63;;;6.94;100.00
57900;BME280;60605;53.716;19.940;2024-02-21T23:49:29;99648.09;;;6.89;100.00
57900;BME280;60605;53.716;19.940;2024-02-21T23:54:33;99644.04;;;6.85;100.00
57900;BME280;60605;53.716;19.940;2024-02-21T23:59:37;99642.32;;;6.81;100.00
